createdAt,value
2018-09-19T00:00:07.717Z,6.13
2018-09-19T00:02:38.012Z,7.70
2018-09-19T00:05:08.586Z,7.17
2018-09-19T00:07:39.092Z,7.90
2018-09-19T00:10:10.111Z,8.57
2018-09-19T00:12:40.566Z,8.50
2018-09-19T00:15:11.052Z,9.30
2018-09-19T00:17:41.530Z,8.80
2018-09-19T00:20:11.924Z,8.23
2018-09-19T00:22:42.485Z,9.03
2018-09-19T00:25:12.746Z,8.73
2018-09-19T00:27:43.151Z,8.53
2018-09-19T00:30:13.546Z,10.53
2018-09-19T00:32:44.008Z,9.10
2018-09-19T00:35:14.505Z,10.40
2018-09-19T00:37:44.897Z,10.10
2018-09-19T00:40:15.393Z,10.27
2018-09-19T00:42:45.691Z,10.30
2018-09-19T00:45:22.871Z,11.80
2018-09-19T00:47:53.154Z,11.33
2018-09-19T00:50:23.607Z,11.63
2018-09-19T00:52:53.941Z,13.40
2018-09-19T00:55:24.478Z,13.93
2018-09-19T00:57:54.955Z,13.77
2018-09-19T01:00:25.346Z,13.43
2018-09-19T01:02:55.717Z,13.20
2018-09-19T01:05:26.320Z,11.30
2018-09-19T01:07:56.704Z,12.13
2018-09-19T01:10:27.164Z,11.57
2018-09-19T01:12:57.468Z,12.83
2018-09-19T01:15:27.767Z,12.53
2018-09-19T01:17:58.144Z,13.13
2018-09-19T01:20:28.944Z,13.23
2018-09-19T01:22:59.452Z,13.10
2018-09-19T01:25:29.941Z,13.80
2018-09-19T01:28:00.408Z,13.30
2018-09-19T01:30:31.380Z,13.53
2018-09-19T01:33:01.873Z,14.33
2018-09-19T01:35:32.580Z,14.03
2018-09-19T01:38:03.035Z,14.53
2018-09-19T01:40:33.457Z,15.30
2018-09-19T01:43:03.933Z,15.87
2018-09-19T01:45:34.434Z,14.60
2018-09-19T01:48:05.038Z,15.43
2018-09-19T01:50:35.322Z,15.87
2018-09-19T01:53:05.783Z,17.33
2018-09-19T01:55:36.234Z,17.53
2018-09-19T01:58:06.646Z,16.30
2018-09-19T02:00:36.756Z,19.00
2018-09-19T02:03:07.297Z,17.10
2018-09-19T02:05:37.873Z,16.90
2018-09-19T02:08:08.250Z,17.00
2018-09-19T02:10:38.644Z,16.13
2018-09-19T02:13:09.051Z,17.67
2018-09-19T02:15:39.275Z,17.07
2018-09-19T02:18:09.656Z,17.33
2018-09-19T02:20:40.148Z,17.33
2018-09-19T02:23:10.548Z,17.10
2018-09-19T02:25:40.784Z,18.47
2018-09-19T02:28:11.261Z,18.47
2018-09-19T02:30:41.746Z,17.67
2018-09-19T02:33:11.952Z,17.73
2018-09-19T02:35:42.203Z,18.83
2018-09-19T02:38:12.496Z,18.23
2018-09-19T02:40:42.902Z,17.73
2018-09-19T02:43:13.284Z,18.80
2018-09-19T02:45:43.550Z,21.03
2018-09-19T02:48:13.892Z,18.87
2018-09-19T02:50:44.413Z,18.50
2018-09-19T02:53:14.857Z,18.27
2018-09-19T02:55:45.243Z,19.87
2018-09-19T02:58:15.541Z,19.37
2018-09-19T03:00:46.090Z,17.70
2018-09-19T03:03:16.496Z,18.57
2018-09-19T03:05:46.884Z,19.73
2018-09-19T03:08:17.145Z,19.60
2018-09-19T03:10:47.638Z,20.63
2018-09-19T03:13:18.120Z,20.77
2018-09-19T03:15:48.607Z,19.20
2018-09-19T03:18:19.254Z,19.23
2018-09-19T03:20:49.640Z,18.83
2018-09-19T03:23:19.938Z,20.97
2018-09-19T03:25:50.419Z,19.67
2018-09-19T03:28:20.831Z,20.33
2018-09-19T03:30:51.804Z,19.63
2018-09-19T03:33:22.199Z,21.83
2018-09-19T03:35:52.555Z,20.40
2018-09-19T03:38:22.952Z,20.53
2018-09-19T03:40:53.502Z,17.93
2018-09-19T03:43:23.919Z,20.20
2018-09-19T03:45:54.255Z,19.57
2018-09-19T03:48:24.649Z,20.07
2018-09-19T03:50:55.151Z,18.67
2018-09-19T03:53:26.049Z,18.00
2018-09-19T03:55:56.543Z,17.77
2018-09-19T03:58:27.140Z,17.47
2018-09-19T04:00:58.345Z,17.90
2018-09-19T04:03:28.675Z,18.70
2018-09-19T04:05:59.201Z,17.00
2018-09-19T04:08:29.427Z,18.67
2018-09-19T04:10:59.788Z,18.23
2018-09-19T04:13:30.072Z,17.17
2018-09-19T04:16:00.261Z,16.73
2018-09-19T04:18:30.639Z,17.23
2018-09-19T04:21:01.100Z,16.00
2018-09-19T04:23:31.331Z,16.17
2018-09-19T04:26:01.819Z,16.03
2018-09-19T04:28:32.181Z,16.97
2018-09-19T04:31:02.570Z,17.30
2018-09-19T04:33:32.900Z,17.07
2018-09-19T04:36:03.529Z,17.07
2018-09-19T04:38:34.009Z,16.53
2018-09-19T04:41:04.093Z,15.40
2018-09-19T04:43:34.172Z,15.57
2018-09-19T04:46:04.329Z,16.73
2018-09-19T04:48:34.393Z,16.20
2018-09-19T04:51:04.526Z,16.90
2018-09-19T04:53:34.635Z,15.97
2018-09-19T04:56:05.146Z,15.30
2018-09-19T04:58:35.584Z,15.20
2018-09-19T05:01:06.299Z,15.77
2018-09-19T05:03:36.792Z,14.67
2018-09-19T05:06:07.452Z,15.00
2018-09-19T05:08:38.049Z,14.93
2018-09-19T05:11:08.395Z,15.30
2018-09-19T05:13:38.625Z,16.33
2018-09-19T05:16:09.272Z,14.53
2018-09-19T05:18:39.566Z,15.13
2018-09-19T05:21:09.984Z,12.60
2018-09-19T05:23:40.220Z,11.43
2018-09-19T05:26:10.666Z,12.23
2018-09-19T05:28:41.365Z,11.93
2018-09-19T05:31:11.928Z,12.57
2018-09-19T05:33:42.373Z,10.77
2018-09-19T05:36:12.684Z,9.87
2018-09-19T05:38:42.984Z,9.40
2018-09-19T05:41:13.314Z,10.83
2018-09-19T05:43:43.638Z,9.17
2018-09-19T05:46:14.259Z,10.07
2018-09-19T05:48:44.649Z,9.70
2018-09-19T05:51:15.203Z,10.23
2018-09-19T05:53:45.708Z,9.43
2018-09-19T05:56:16.200Z,9.33
2018-09-19T05:58:46.660Z,8.60
2018-09-19T06:01:17.036Z,8.40
2018-09-19T06:03:47.883Z,7.23
2018-09-19T06:06:18.320Z,6.90
2018-09-19T06:08:49.691Z,8.00
2018-09-19T06:11:19.983Z,7.00
2018-09-19T06:13:51.296Z,7.23
2018-09-19T06:16:21.640Z,7.30
2018-09-19T06:18:52.317Z,6.73
2018-09-19T06:21:22.747Z,5.77
2018-09-19T06:23:53.142Z,5.63
2018-09-19T06:26:23.724Z,6.00
2018-09-19T06:28:54.227Z,7.10
2018-09-19T06:31:25.267Z,5.77
2018-09-19T06:33:55.631Z,5.10
2018-09-19T06:36:26.048Z,4.90
2018-09-19T06:38:56.304Z,4.40
2018-09-19T06:41:26.766Z,4.33
2018-09-19T06:43:57.166Z,5.30
2018-09-19T06:46:27.688Z,3.97
2018-09-19T06:48:58.054Z,3.27
2018-09-19T06:51:28.639Z,3.47
2018-09-19T06:53:59.089Z,3.33
2018-09-19T06:56:29.563Z,3.67
2018-09-19T06:58:59.881Z,4.07
2018-09-19T07:01:30.297Z,3.13
2018-09-19T07:04:00.597Z,4.23
2018-09-19T07:06:30.962Z,3.27
2018-09-19T07:09:01.280Z,3.00
2018-09-19T07:11:31.791Z,2.73
2018-09-19T07:14:02.300Z,3.03
2018-09-19T07:16:33.090Z,3.00
2018-09-19T07:19:03.584Z,3.27
2018-09-19T07:21:33.875Z,2.90
2018-09-19T07:24:04.305Z,2.90
2018-09-19T07:26:34.621Z,2.77
2018-09-19T07:29:05.180Z,2.77
2018-09-19T07:31:35.684Z,3.10
2018-09-19T07:34:06.288Z,2.73
2018-09-19T07:36:37.488Z,3.00
2018-09-19T07:39:11.468Z,3.00
2018-09-19T07:41:41.904Z,3.50
2018-09-19T07:44:12.431Z,3.47
2018-09-19T07:46:43.053Z,2.33
2018-09-19T07:49:13.468Z,2.47
2018-09-19T07:51:43.839Z,2.60
2018-09-19T07:54:14.151Z,2.13
2018-09-19T07:56:44.553Z,1.90
2018-09-19T07:59:15.095Z,2.60
2018-09-19T08:01:45.554Z,2.43
2018-09-19T08:04:16.059Z,2.80
2018-09-19T08:06:46.560Z,2.30
2018-09-19T08:09:17.129Z,2.60
2018-09-19T08:11:47.620Z,3.10
2018-09-19T08:14:18.040Z,2.60
2018-09-19T08:16:48.451Z,2.63
2018-09-19T08:19:18.804Z,2.30
2018-09-19T08:21:49.316Z,3.33
2018-09-19T08:24:19.668Z,2.67
2018-09-19T08:26:50.083Z,2.10
2018-09-19T08:29:20.518Z,2.50
2018-09-19T08:31:50.826Z,2.90
2018-09-19T08:34:21.409Z,2.50
2018-09-19T08:36:51.879Z,2.10
2018-09-19T08:39:22.259Z,2.03
2018-09-19T08:41:52.741Z,2.17
2018-09-19T08:44:23.196Z,2.07
2018-09-19T08:46:53.583Z,2.10
2018-09-19T08:49:23.981Z,2.27
2018-09-19T08:51:54.468Z,2.30
2018-09-19T08:54:24.897Z,2.30
2018-09-19T08:56:55.235Z,1.77
2018-09-19T08:59:25.698Z,2.13
2018-09-19T09:01:56.099Z,2.40
2018-09-19T09:04:26.457Z,2.63
2018-09-19T09:06:56.727Z,2.10
2018-09-19T09:09:27.164Z,1.90
2018-09-19T09:11:57.462Z,2.60
2018-09-19T09:14:27.932Z,2.90
2018-09-19T09:16:58.343Z,2.13
2018-09-19T09:19:28.700Z,2.10
2018-09-19T09:21:59.048Z,1.90
2018-09-19T09:24:29.494Z,1.83
2018-09-19T09:26:59.980Z,3.00
2018-09-19T09:29:30.342Z,2.20
2018-09-19T09:32:00.844Z,2.23
2018-09-19T09:34:31.509Z,2.13
2018-09-19T09:37:01.924Z,2.00
2018-09-19T09:39:32.251Z,2.57
2018-09-19T09:42:02.544Z,2.40
2018-09-19T09:44:32.922Z,2.43
2018-09-19T09:47:03.144Z,2.17
2018-09-19T09:49:33.337Z,2.20
2018-09-19T09:52:03.836Z,2.60
2018-09-19T09:54:34.217Z,2.53
2018-09-19T09:57:05.366Z,2.90
2018-09-19T09:59:35.693Z,2.70
2018-09-19T10:02:06.026Z,2.40
2018-09-19T10:04:36.344Z,2.23
2018-09-19T10:07:07.078Z,2.27
2018-09-19T10:09:37.673Z,2.97
2018-09-19T10:12:08.146Z,2.70
2018-09-19T10:14:38.543Z,3.20
2018-09-19T10:17:09.131Z,2.50
2018-09-19T10:19:39.370Z,2.17
2018-09-19T10:22:09.841Z,2.43
2018-09-19T10:24:40.212Z,2.60
2018-09-19T10:27:11.433Z,3.17
2018-09-19T10:29:41.954Z,3.30
2018-09-19T10:32:12.636Z,3.63
2018-09-19T10:34:42.955Z,3.93
2018-09-19T10:37:13.420Z,3.33
2018-09-19T10:39:43.868Z,3.77
2018-09-19T10:42:14.196Z,2.90
2018-09-19T10:44:44.646Z,3.50
2018-09-19T10:47:15.093Z,3.37
2018-09-19T10:49:45.435Z,3.33
2018-09-19T10:52:15.737Z,3.60
2018-09-19T10:54:46.155Z,3.63
2018-09-19T10:57:16.584Z,3.70
2018-09-19T10:59:47.051Z,3.57
2018-09-19T11:02:18.637Z,3.60
2018-09-19T11:04:48.904Z,3.10
2018-09-19T11:07:19.413Z,3.60
2018-09-19T11:09:50.045Z,3.90
2018-09-19T11:12:20.551Z,3.70
2018-09-19T11:14:50.813Z,4.00
2018-09-19T11:17:21.191Z,3.60
2018-09-19T11:19:51.656Z,3.43
2018-09-19T11:22:22.063Z,3.50
2018-09-19T11:24:52.619Z,3.43
2018-09-19T11:27:23.028Z,4.07
2018-09-19T11:29:53.504Z,4.63
2018-09-19T11:32:23.761Z,4.23
2018-09-19T11:34:54.216Z,3.57
2018-09-19T11:37:24.538Z,3.07
2018-09-19T11:39:55.103Z,3.40
2018-09-19T11:42:25.574Z,3.67
2018-09-19T11:44:55.950Z,3.37
2018-09-19T11:47:26.183Z,3.27
2018-09-19T11:49:56.633Z,3.33
2018-09-19T11:52:27.136Z,4.60
2018-09-19T11:54:57.592Z,3.20
2018-09-19T11:57:27.960Z,3.90
2018-09-19T11:59:58.472Z,4.00
2018-09-19T12:02:28.857Z,3.27
2018-09-19T12:04:59.238Z,3.27
2018-09-19T12:07:29.471Z,3.20
2018-09-19T12:09:59.968Z,4.60
2018-09-19T12:12:30.407Z,3.00
2018-09-19T12:15:01.160Z,3.63
2018-09-19T12:17:31.665Z,3.47
2018-09-19T12:20:02.227Z,3.63
2018-09-19T12:22:32.484Z,3.43
2018-09-19T12:25:02.899Z,3.37
2018-09-19T12:27:33.447Z,3.33
2018-09-19T12:30:04.072Z,3.20
2018-09-19T12:32:35.276Z,3.30
2018-09-19T12:35:05.928Z,4.33
2018-09-19T12:37:36.340Z,3.00
2018-09-19T12:40:07.129Z,3.53
2018-09-19T12:42:37.629Z,3.30
2018-09-19T12:45:09.719Z,3.47
2018-09-19T12:47:39.998Z,3.90
2018-09-19T12:50:10.383Z,3.70
2018-09-19T12:52:40.740Z,3.80
2018-09-19T12:55:11.265Z,3.33
2018-09-19T12:57:41.641Z,3.83
2018-09-19T13:00:12.098Z,3.50
2018-09-19T13:02:42.420Z,3.17
2018-09-19T13:05:12.933Z,3.10
2018-09-19T13:07:43.407Z,2.80
2018-09-19T13:10:13.893Z,2.93
2018-09-19T13:12:44.487Z,3.47
2018-09-19T13:15:14.812Z,3.40
2018-09-19T13:17:45.258Z,3.70
2018-09-19T13:20:15.549Z,2.90
2018-09-19T13:22:46.509Z,3.40
2018-09-19T13:25:17.025Z,3.03
2018-09-19T13:27:47.316Z,2.97
2018-09-19T13:30:17.820Z,3.40
2018-09-19T13:32:48.080Z,3.50
2018-09-19T13:35:18.452Z,3.77
2018-09-19T13:37:48.923Z,3.40
2018-09-19T13:40:19.514Z,3.03
2018-09-19T13:42:49.983Z,3.17
2018-09-19T13:45:20.153Z,3.33
2018-09-19T13:47:50.527Z,3.67
2018-09-19T13:50:39.929Z,3.33
2018-09-19T13:53:10.690Z,3.40
2018-09-19T13:55:41.024Z,3.50
2018-09-19T13:58:13.204Z,3.80
2018-09-19T14:00:43.591Z,3.50
2018-09-19T14:03:14.079Z,4.50
2018-09-19T14:05:44.412Z,3.03
2018-09-19T14:08:14.737Z,3.77
2018-09-19T14:10:45.411Z,3.80
2018-09-19T14:13:16.124Z,3.93
2018-09-19T14:15:46.688Z,3.83
2018-09-19T14:18:17.274Z,3.80
2018-09-19T14:20:47.555Z,4.33
2018-09-19T14:23:17.912Z,3.47
2018-09-19T14:25:48.399Z,3.67
2018-09-19T14:28:18.799Z,3.73
2018-09-19T14:30:49.981Z,3.30
2018-09-19T14:33:20.435Z,3.33
2018-09-19T14:35:50.968Z,4.13
2018-09-19T14:38:21.425Z,3.60
2018-09-19T14:40:51.867Z,3.57
2018-09-19T14:43:22.211Z,3.30
2018-09-19T14:45:53.004Z,4.17
2018-09-19T14:48:23.494Z,3.57
2018-09-19T14:50:54.007Z,3.10
2018-09-19T14:53:24.383Z,3.77
2018-09-19T14:55:54.662Z,3.40
2018-09-19T14:58:25.022Z,3.10
2018-09-19T15:00:55.324Z,3.47
2018-09-19T15:03:25.704Z,2.73
2018-09-19T15:05:56.195Z,3.17
2018-09-19T15:08:26.653Z,2.83
2018-09-19T15:10:57.054Z,3.60
2018-09-19T15:13:27.537Z,3.00
2018-09-19T15:15:58.040Z,2.80
2018-09-19T15:18:28.551Z,2.87
2018-09-19T15:20:58.945Z,2.73
2018-09-19T15:23:29.206Z,2.67
2018-09-19T15:25:59.553Z,3.20
2018-09-19T15:28:30.153Z,2.87
2018-09-19T15:31:00.600Z,2.80
2018-09-19T15:33:30.822Z,2.90
2018-09-19T15:36:01.338Z,2.80
2018-09-19T15:38:31.872Z,2.93
2018-09-19T15:41:02.415Z,3.00
2018-09-19T15:43:32.970Z,2.97
2018-09-19T15:46:03.375Z,2.70
2018-09-19T15:48:33.662Z,3.27
2018-09-19T15:51:03.928Z,2.90
2018-09-19T15:53:34.376Z,3.00
2018-09-19T15:56:04.729Z,3.27
2018-09-19T15:58:35.112Z,3.00
2018-09-19T16:01:05.622Z,3.27
2018-09-19T16:03:35.948Z,3.00
2018-09-19T16:06:06.462Z,3.40
2018-09-19T16:08:36.839Z,2.60
2018-09-19T16:11:07.927Z,2.37
2018-09-19T16:13:38.430Z,2.40
2018-09-19T16:16:09.571Z,3.00
2018-09-19T16:18:40.019Z,3.27
2018-09-19T16:21:10.624Z,3.00
2018-09-19T16:23:40.946Z,2.77
2018-09-19T16:26:11.403Z,3.10
2018-09-19T16:28:41.807Z,2.73
2018-09-19T16:31:12.230Z,3.40
2018-09-19T16:33:42.735Z,3.13
2018-09-19T16:36:13.330Z,2.73
2018-09-19T16:38:43.684Z,3.20
2018-09-19T16:41:13.971Z,2.70
2018-09-19T16:43:44.460Z,2.60
2018-09-19T16:46:14.856Z,3.27
2018-09-19T16:48:45.296Z,3.00
2018-09-19T16:51:15.688Z,2.67
2018-09-19T16:53:46.159Z,2.90
2018-09-19T16:56:16.702Z,3.13
2018-09-19T16:58:47.133Z,3.13
2018-09-19T17:01:17.569Z,2.73
2018-09-19T17:03:48.070Z,2.70
2018-09-19T17:06:18.424Z,3.10
2018-09-19T17:08:48.800Z,3.10
2018-09-19T17:11:19.301Z,3.03
2018-09-19T17:13:50.184Z,3.50
2018-09-19T17:16:20.926Z,3.00
2018-09-19T17:18:51.364Z,3.20
2018-09-19T17:21:21.971Z,4.10
2018-09-19T17:23:52.362Z,2.63
2018-09-19T17:26:22.661Z,3.27
2018-09-19T17:28:53.072Z,2.80
2018-09-19T17:31:23.526Z,2.80
2018-09-19T17:33:53.992Z,3.30
2018-09-19T17:36:24.233Z,3.33
2018-09-19T17:38:54.653Z,2.80
2018-09-19T17:41:25.159Z,2.83
2018-09-19T17:43:55.682Z,2.60
2018-09-19T17:46:25.882Z,3.17
2018-09-19T17:48:56.389Z,3.10
2018-09-19T17:51:27.000Z,2.57
2018-09-19T17:53:57.539Z,3.20
2018-09-19T17:56:27.999Z,4.00
2018-09-19T17:58:58.391Z,3.20
2018-09-19T18:01:28.807Z,3.70
2018-09-19T18:03:59.399Z,2.90
2018-09-19T18:06:29.889Z,3.20
2018-09-19T18:09:00.196Z,2.87
2018-09-19T18:11:30.596Z,3.03
2018-09-19T18:14:01.058Z,2.70
2018-09-19T18:16:31.604Z,2.90
2018-09-19T18:19:02.006Z,3.40
2018-09-19T18:21:32.584Z,3.30
2018-09-19T18:24:02.857Z,3.77
2018-09-19T18:26:33.304Z,3.17
2018-09-19T18:29:03.682Z,3.17
2018-09-19T18:31:34.252Z,3.20
2018-09-19T18:34:04.748Z,3.10
2018-09-19T18:36:35.038Z,3.37
2018-09-19T18:39:06.357Z,3.20
2018-09-19T18:41:37.388Z,2.73
2018-09-19T18:44:07.994Z,3.50
2018-09-19T18:46:38.500Z,3.97
2018-09-19T18:49:08.891Z,3.30
2018-09-19T18:51:39.460Z,2.83
2018-09-19T18:54:09.936Z,3.10
2018-09-19T18:56:40.508Z,3.20
2018-09-19T18:59:10.973Z,3.17
2018-09-19T19:01:41.451Z,3.40
2018-09-19T19:04:12.327Z,3.67
2018-09-19T19:06:42.918Z,3.40
2018-09-19T19:09:13.871Z,3.50
2018-09-19T19:11:44.520Z,3.43
2018-09-19T19:14:15.347Z,3.50
2018-09-19T19:16:45.949Z,2.90
2018-09-19T19:19:16.562Z,3.03
2018-09-19T19:21:47.150Z,3.50
2018-09-19T19:24:17.652Z,3.17
2018-09-19T19:26:48.232Z,3.70
2018-09-19T19:29:18.482Z,3.00
2018-09-19T19:31:48.920Z,4.47
2018-09-19T19:34:19.308Z,2.97
2018-09-19T19:36:49.924Z,3.33
2018-09-19T19:39:20.436Z,3.20
2018-09-19T19:41:50.935Z,3.67
2018-09-19T19:44:21.190Z,3.50
2018-09-19T19:46:51.499Z,2.93
2018-09-19T19:49:22.063Z,3.10
2018-09-19T19:51:52.573Z,3.77
2018-09-19T19:54:22.914Z,3.23
2018-09-19T19:56:53.255Z,3.70
2018-09-19T19:59:23.736Z,3.23
2018-09-19T20:01:54.101Z,3.47
2018-09-19T20:04:24.506Z,3.17
2018-09-19T20:06:54.963Z,3.03
2018-09-19T20:09:25.226Z,3.00
2018-09-19T20:11:55.622Z,4.00
2018-09-19T20:14:25.921Z,3.40
2018-09-19T20:16:56.385Z,3.40
2018-09-19T20:19:27.145Z,3.40
2018-09-19T20:21:57.524Z,3.43
2018-09-19T20:24:27.780Z,3.70
2018-09-19T20:26:59.000Z,3.57
2018-09-19T20:29:29.259Z,4.40
2018-09-19T20:31:59.649Z,3.47
2018-09-19T20:34:30.371Z,3.07
2018-09-19T20:37:00.980Z,3.50
2018-09-19T20:39:31.587Z,3.53
2018-09-19T20:42:01.904Z,3.70
2018-09-19T20:44:32.285Z,3.90
2018-09-19T20:47:02.790Z,3.77
2018-09-19T20:49:33.302Z,4.10
2018-09-19T20:52:03.813Z,4.27
2018-09-19T20:54:34.403Z,3.40
2018-09-19T20:57:04.997Z,3.53
2018-09-19T20:59:35.585Z,3.30
2018-09-19T21:02:06.060Z,3.37
2018-09-19T21:04:36.515Z,3.57
2018-09-19T21:07:07.001Z,3.20
2018-09-19T21:09:37.960Z,3.37
2018-09-19T21:12:08.375Z,3.83
2018-09-19T21:14:38.730Z,4.13
2018-09-19T21:17:09.279Z,4.67
2018-09-19T21:19:39.796Z,4.03
2018-09-19T21:22:10.228Z,4.23
2018-09-19T21:24:40.631Z,3.57
2018-09-19T21:27:10.973Z,4.10
2018-09-19T21:29:41.358Z,3.60
2018-09-19T21:32:12.047Z,3.63
2018-09-19T21:34:42.426Z,3.50
2018-09-19T21:37:12.776Z,4.00
2018-09-19T21:39:43.347Z,4.07
2018-09-19T21:42:13.745Z,3.77
2018-09-19T21:44:44.156Z,4.30
2018-09-19T21:47:14.524Z,3.70
2018-09-19T21:49:44.798Z,3.33
2018-09-19T21:52:15.172Z,3.87
2018-09-19T21:54:45.767Z,3.57
2018-09-19T21:57:16.208Z,3.63
2018-09-19T21:59:46.682Z,3.50
2018-09-19T22:02:18.387Z,3.87
2018-09-19T22:04:49.435Z,3.60
2018-09-19T22:07:19.860Z,4.13
2018-09-19T22:09:50.230Z,3.63
2018-09-19T22:12:20.643Z,3.70
2018-09-19T22:14:50.997Z,4.40
2018-09-19T22:17:21.435Z,4.63
2018-09-19T22:19:52.080Z,4.10
2018-09-19T22:22:22.471Z,3.70
2018-09-19T22:24:52.967Z,3.17
2018-09-19T22:27:23.484Z,3.63
2018-09-19T22:29:53.845Z,4.60
2018-09-19T22:32:24.326Z,3.83
2018-09-19T22:34:54.739Z,4.40
2018-09-19T22:37:25.243Z,3.70
2018-09-19T22:39:55.825Z,3.57
2018-09-19T22:42:26.646Z,3.90
2018-09-19T22:44:57.199Z,4.63
2018-09-19T22:47:27.688Z,3.90
2018-09-19T22:49:58.152Z,4.40
2018-09-19T22:52:28.512Z,4.23
2018-09-19T22:54:58.980Z,4.73
2018-09-19T22:57:29.563Z,4.63
2018-09-19T22:59:59.900Z,4.60
2018-09-19T23:02:30.252Z,4.00
2018-09-19T23:05:00.524Z,5.60
2018-09-19T23:07:30.955Z,4.57
2018-09-19T23:10:01.462Z,4.73
2018-09-19T23:12:31.817Z,5.03
2018-09-19T23:15:02.060Z,5.60
2018-09-19T23:17:32.342Z,4.93
2018-09-19T23:20:02.785Z,5.20
2018-09-19T23:22:32.991Z,4.47
2018-09-19T23:25:03.389Z,4.77
2018-09-19T23:27:33.718Z,4.70
2018-09-19T23:30:04.180Z,4.80
2018-09-19T23:32:34.535Z,4.80
2018-09-19T23:35:05.051Z,4.43
2018-09-19T23:37:35.510Z,4.97
2018-09-19T23:40:06.195Z,4.70
2018-09-19T23:42:36.868Z,4.63
2018-09-19T23:45:07.745Z,5.00
2018-09-19T23:47:38.075Z,4.50
2018-09-19T23:50:08.580Z,4.60
2018-09-19T23:52:38.907Z,5.20
2018-09-19T23:55:09.309Z,5.00
2018-09-19T23:57:39.671Z,5.90
